createdAt,value
2018-01-15T00:01:38.777Z,0.00
2018-01-15T00:04:07.045Z,0.00
2018-01-15T00:06:35.340Z,0.00
2018-01-15T00:09:02.848Z,-0.10
2018-01-15T00:11:30.372Z,0.00
2018-01-15T00:13:57.878Z,0.00
2018-01-15T00:16:25.402Z,-0.20
2018-01-15T00:18:52.940Z,-0.20
2018-01-15T00:21:20.457Z,0.00
2018-01-15T00:23:48.016Z,0.10
2018-01-15T00:26:15.518Z,0.00
2018-01-15T00:28:43.036Z,-0.10
2018-01-15T00:31:10.551Z,-0.20
2018-01-15T00:33:38.081Z,0.00
2018-01-15T00:36:06.352Z,0.10
2018-01-15T00:38:34.631Z,0.00
2018-01-15T00:41:02.946Z,0.10
2018-01-15T00:43:30.451Z,0.00
2018-01-15T00:45:57.992Z,0.00
2018-01-15T00:48:25.506Z,-0.10
2018-01-15T00:50:53.031Z,0.00
2018-01-15T00:53:20.560Z,-0.10
2018-01-15T00:55:48.079Z,-0.20
2018-01-15T00:58:15.604Z,-0.30
2018-01-15T01:00:43.119Z,-0.20
2018-01-15T01:03:10.659Z,-0.10
2018-01-15T01:05:38.930Z,-0.20
2018-01-15T01:08:07.216Z,-0.20
2018-01-15T01:10:35.490Z,-0.20
2018-01-15T01:13:03.800Z,-0.20
2018-01-15T01:15:31.317Z,-0.30
2018-01-15T01:17:59.600Z,-0.50
2018-01-15T01:20:27.129Z,-0.60
2018-01-15T01:22:54.638Z,-0.40
2018-01-15T01:25:22.175Z,-0.30
2018-01-15T01:27:50.448Z,-0.10
2018-01-15T01:30:18.745Z,-0.10
2018-01-15T01:32:47.021Z,-0.10
2018-01-15T01:35:14.546Z,-0.10
2018-01-15T01:37:42.070Z,-0.10
2018-01-15T01:40:09.584Z,0.00
2018-01-15T01:42:37.884Z,0.00
2018-01-15T01:45:05.389Z,-0.10
2018-01-15T01:47:32.912Z,-0.10
2018-01-15T01:50:00.427Z,-0.10
2018-01-15T01:52:27.952Z,0.00
2018-01-15T01:54:55.470Z,0.00
2018-01-15T01:57:22.992Z,0.00
2018-01-15T01:59:50.510Z,0.00
2018-01-15T02:02:18.040Z,0.00
2018-01-15T02:04:46.329Z,-0.10
2018-01-15T02:07:14.610Z,-0.30
2018-01-15T02:09:42.151Z,-0.40
2018-01-15T02:12:10.432Z,-0.20
2018-01-15T02:14:38.743Z,-0.10
2018-01-15T02:17:06.252Z,-0.20
2018-01-15T02:19:33.788Z,-0.10
2018-01-15T02:22:01.296Z,0.00
2018-01-15T02:24:29.594Z,-0.10
2018-01-15T02:26:57.107Z,-0.20
2018-01-15T02:29:24.605Z,-0.20
2018-01-15T02:31:52.171Z,-0.20
2018-01-15T02:34:19.682Z,-0.10
2018-01-15T02:36:47.225Z,-0.10
2018-01-15T02:39:16.758Z,-0.10
2018-01-15T02:41:44.292Z,0.00
2018-01-15T02:44:11.796Z,-0.20
2018-01-15T02:46:40.081Z,-0.20
2018-01-15T02:49:07.592Z,-0.30
2018-01-15T02:51:35.116Z,-0.10
2018-01-15T02:54:02.632Z,-0.20
2018-01-15T02:56:30.132Z,-0.30
2018-01-15T02:58:57.663Z,-0.20
2018-01-15T03:01:25.943Z,0.00
2018-01-15T03:03:54.249Z,-0.10
2018-01-15T03:06:21.756Z,-0.20
2018-01-15T03:08:49.289Z,-0.10
2018-01-15T03:11:16.800Z,-0.10
2018-01-15T03:13:45.101Z,0.00
2018-01-15T03:16:12.610Z,-0.10
2018-01-15T03:18:40.139Z,0.10
2018-01-15T03:21:07.652Z,0.20
2018-01-15T03:23:35.940Z,0.30
2018-01-15T03:26:04.211Z,0.30
2018-01-15T03:28:32.489Z,0.30
2018-01-15T03:31:00.788Z,0.20
2018-01-15T03:33:28.289Z,0.10
2018-01-15T03:35:55.825Z,0.40
2018-01-15T03:38:23.336Z,0.40
2018-01-15T03:40:50.847Z,0.30
2018-01-15T03:43:18.336Z,0.30
2018-01-15T03:45:45.860Z,0.30
2018-01-15T03:48:14.135Z,0.00
2018-01-15T03:50:41.686Z,-0.10
2018-01-15T03:53:09.208Z,0.10
2018-01-15T03:55:36.716Z,0.30
2018-01-15T03:58:04.254Z,0.40
2018-01-15T04:00:32.553Z,0.40
2018-01-15T04:03:00.088Z,0.30
2018-01-15T04:05:28.364Z,0.50
2018-01-15T04:07:56.653Z,0.60
2018-01-15T04:10:24.156Z,0.50
2018-01-15T04:12:51.665Z,0.70
2018-01-15T04:15:19.199Z,0.80
2018-01-15T04:17:46.695Z,0.80
2018-01-15T04:20:14.221Z,1.00
2018-01-15T04:22:41.721Z,0.90
2018-01-15T04:25:09.250Z,0.80
2018-01-15T04:27:37.511Z,0.70
2018-01-15T04:30:05.041Z,0.60
2018-01-15T04:32:32.554Z,0.80
2018-01-15T04:35:00.840Z,1.00
2018-01-15T04:37:28.368Z,0.90
2018-01-15T04:39:55.869Z,0.90
2018-01-15T04:42:23.391Z,0.80
2018-01-15T04:44:51.675Z,0.60
2018-01-15T04:47:19.964Z,0.80
2018-01-15T04:49:48.236Z,0.90
2018-01-15T04:52:15.782Z,0.80
2018-01-15T04:54:43.284Z,0.90
2018-01-15T04:57:10.831Z,0.80
2018-01-15T04:59:38.333Z,0.80
2018-01-15T05:02:05.849Z,0.80
2018-01-15T05:04:33.357Z,0.90
2018-01-15T05:07:00.855Z,0.80
2018-01-15T05:09:29.138Z,0.80
2018-01-15T05:11:57.395Z,0.80
2018-01-15T05:14:24.920Z,0.80
2018-01-15T05:16:52.411Z,0.90
2018-01-15T05:19:19.928Z,0.80
2018-01-15T05:21:47.427Z,0.80
2018-01-15T05:24:14.941Z,0.80
2018-01-15T05:26:42.435Z,0.80
2018-01-15T05:29:09.951Z,0.70
2018-01-15T05:31:37.450Z,0.80
2018-01-15T05:34:04.944Z,0.70
2018-01-15T05:36:33.223Z,0.70
2018-01-15T05:39:01.484Z,0.80
2018-01-15T05:41:29.003Z,0.70
2018-01-15T05:43:56.497Z,0.70
2018-01-15T05:46:24.017Z,0.80
2018-01-15T05:48:51.512Z,0.90
2018-01-15T05:51:19.033Z,1.00
2018-01-15T05:53:46.527Z,1.10
2018-01-15T05:56:14.051Z,1.10
2018-01-15T05:58:41.548Z,1.00
2018-01-15T06:01:09.059Z,1.00
2018-01-15T06:03:36.598Z,1.00
2018-01-15T06:06:04.863Z,1.10
2018-01-15T06:08:33.144Z,0.90
2018-01-15T06:11:01.417Z,0.90
2018-01-15T06:13:29.704Z,1.00
2018-01-15T06:15:57.968Z,1.00
2018-01-15T06:18:25.524Z,0.90
2018-01-15T06:20:53.804Z,1.00
2018-01-15T06:23:22.119Z,1.10
2018-01-15T06:25:49.644Z,1.00
2018-01-15T06:28:18.116Z,1.10
2018-01-15T06:30:45.653Z,1.20
2018-01-15T06:33:13.160Z,1.20
2018-01-15T06:35:41.470Z,1.10
2018-01-15T06:38:08.976Z,1.10
2018-01-15T06:40:36.488Z,1.00
2018-01-15T06:43:04.004Z,0.90
2018-01-15T06:45:32.280Z,0.90
2018-01-15T06:48:00.589Z,0.80
2018-01-15T06:50:28.092Z,0.70
2018-01-15T06:52:55.609Z,0.70
2018-01-15T06:55:23.103Z,0.90
2018-01-15T06:57:51.065Z,0.80
2018-01-15T07:00:19.321Z,0.80
2018-01-15T07:02:46.828Z,0.80
2018-01-15T07:05:14.376Z,0.80
2018-01-15T07:07:41.874Z,0.80
2018-01-15T07:10:10.220Z,0.80
2018-01-15T07:12:37.749Z,0.70
2018-01-15T07:15:05.287Z,0.80
2018-01-15T07:17:32.792Z,0.90
2018-01-15T07:20:00.330Z,0.90
2018-01-15T07:22:27.839Z,0.80
2018-01-15T07:24:56.132Z,0.70
2018-01-15T07:27:24.395Z,0.70
2018-01-15T07:29:52.687Z,0.70
2018-01-15T07:32:20.956Z,0.70
2018-01-15T07:34:49.224Z,0.80
2018-01-15T07:37:16.752Z,0.70
2018-01-15T07:39:44.278Z,0.80
2018-01-15T07:42:11.813Z,0.70
2018-01-15T07:44:40.085Z,0.70
2018-01-15T07:47:08.394Z,0.80
2018-01-15T07:49:35.910Z,0.70
2018-01-15T07:52:03.438Z,0.80
2018-01-15T07:54:30.940Z,0.80
2018-01-15T07:56:59.217Z,0.70
2018-01-15T07:59:26.748Z,0.60
2018-01-15T08:01:54.270Z,0.80
2018-01-15T08:04:21.804Z,0.60
2018-01-15T08:06:50.079Z,0.60
2018-01-15T08:09:18.372Z,0.70
2018-01-15T08:11:46.652Z,0.80
2018-01-15T08:14:14.192Z,0.70
2018-01-15T08:16:42.472Z,0.80
2018-01-15T08:19:10.746Z,0.90
2018-01-15T08:21:39.045Z,0.80
2018-01-15T08:24:06.545Z,0.70
2018-01-15T08:26:34.075Z,0.70
2018-01-15T08:29:01.589Z,0.70
2018-01-15T08:31:29.116Z,0.60
2018-01-15T08:33:56.621Z,0.60
2018-01-15T08:36:24.940Z,0.90
2018-01-15T08:38:52.441Z,0.80
2018-01-15T08:41:19.965Z,0.80
2018-01-15T08:43:47.478Z,1.00
2018-01-15T08:46:15.762Z,1.30
2018-01-15T08:48:44.080Z,1.50
2018-01-15T08:51:11.581Z,1.40
2018-01-15T08:53:39.100Z,1.40
2018-01-15T08:56:06.608Z,1.40
2018-01-15T08:58:34.900Z,1.60
2018-01-15T09:01:03.182Z,1.80
2018-01-15T09:03:31.477Z,1.70
2018-01-15T09:05:58.984Z,1.60
2018-01-15T09:08:26.489Z,1.80
2018-01-15T09:10:54.013Z,1.90
2018-01-15T09:13:21.512Z,2.00
2018-01-15T09:15:49.037Z,2.10
2018-01-15T09:18:16.540Z,2.30
2018-01-15T09:20:44.063Z,2.40
2018-01-15T09:23:12.340Z,2.70
2018-01-15T09:25:40.630Z,2.70
2018-01-15T09:28:08.904Z,2.80
2018-01-15T09:30:37.207Z,2.80
2018-01-15T09:33:04.719Z,2.70
2018-01-15T09:35:32.229Z,2.90
2018-01-15T09:37:59.758Z,3.00
2018-01-15T09:40:28.043Z,3.00
2018-01-15T09:42:56.333Z,3.20
2018-01-15T09:45:23.845Z,3.10
2018-01-15T09:47:51.378Z,3.20
2018-01-15T09:50:18.892Z,3.10
2018-01-15T09:52:47.180Z,3.00
2018-01-15T09:55:14.697Z,2.90
2018-01-15T09:57:42.264Z,3.20
2018-01-15T10:00:09.773Z,3.20
2018-01-15T10:02:37.309Z,3.20
2018-01-15T10:05:05.597Z,3.40
2018-01-15T10:07:33.101Z,3.30
2018-01-15T10:10:00.637Z,3.30
2018-01-15T10:12:28.151Z,3.20
2018-01-15T10:14:56.461Z,3.50
2018-01-15T10:17:23.968Z,3.30
2018-01-15T10:19:51.489Z,3.40
2018-01-15T10:22:19.012Z,3.40
2018-01-15T10:24:47.319Z,3.60
2018-01-15T10:27:14.837Z,3.50
2018-01-15T10:29:42.340Z,3.80
2018-01-15T10:32:09.868Z,3.70
2018-01-15T10:34:38.139Z,3.80
2018-01-15T10:37:05.672Z,3.70
2018-01-15T10:39:33.194Z,3.80
2018-01-15T10:42:00.739Z,3.70
2018-01-15T10:44:29.024Z,3.80
2018-01-15T10:46:56.550Z,3.70
2018-01-15T10:49:24.057Z,3.80
2018-01-15T10:51:51.576Z,3.80
2018-01-15T10:54:19.102Z,3.90
2018-01-15T10:56:46.601Z,3.90
2018-01-15T10:59:14.120Z,3.80
2018-01-15T11:01:41.637Z,3.90
2018-01-15T11:04:09.928Z,3.90
2018-01-15T11:06:37.437Z,3.90
2018-01-15T11:09:05.007Z,4.10
2018-01-15T11:11:32.515Z,4.10
2018-01-15T11:14:00.034Z,4.00
2018-01-15T11:16:27.529Z,4.20
2018-01-15T11:18:55.053Z,4.30
2018-01-15T11:21:23.340Z,4.40
2018-01-15T11:23:50.861Z,4.30
2018-01-15T11:26:18.372Z,4.20
2018-01-15T11:28:46.646Z,4.20
2018-01-15T11:31:14.946Z,4.20
2018-01-15T11:33:42.447Z,4.10
2018-01-15T11:36:09.989Z,4.10
2018-01-15T11:38:37.492Z,4.20
2018-01-15T11:41:05.775Z,4.30
2018-01-15T11:43:34.044Z,4.30
2018-01-15T11:46:02.992Z,4.50
2018-01-15T11:48:30.490Z,4.40
2018-01-15T11:50:58.005Z,4.60
2018-01-15T11:53:25.508Z,4.50
2018-01-15T11:55:53.028Z,4.50
2018-01-15T11:58:20.533Z,4.60
2018-01-15T12:00:48.850Z,4.70
2018-01-15T12:03:17.099Z,4.80
2018-01-15T12:05:45.381Z,4.80
2018-01-15T12:08:13.674Z,4.80
2018-01-15T12:10:41.180Z,4.70
2018-01-15T12:13:08.698Z,4.70
2018-01-15T12:15:36.202Z,4.70
2018-01-15T12:18:03.761Z,4.70
2018-01-15T12:20:31.274Z,4.70
2018-01-15T12:22:58.835Z,4.70
2018-01-15T12:25:26.340Z,4.70
2018-01-15T12:27:53.870Z,4.80
2018-01-15T12:30:21.374Z,4.80
2018-01-15T12:32:48.901Z,4.90
2018-01-15T12:35:17.170Z,5.20
2018-01-15T12:37:45.522Z,5.10
2018-01-15T12:40:13.041Z,5.20
2018-01-15T12:42:40.536Z,5.10
2018-01-15T12:45:08.065Z,5.10
2018-01-15T12:47:35.569Z,5.20
2018-01-15T12:50:03.092Z,5.20
2018-01-15T12:52:31.388Z,5.10
2018-01-15T12:54:58.901Z,5.00
2018-01-15T12:57:26.413Z,5.10
2018-01-15T12:59:53.945Z,5.10
2018-01-15T13:02:21.457Z,5.00
2018-01-15T13:04:48.984Z,5.10
2018-01-15T13:07:29.074Z,5.10
2018-01-15T13:09:57.362Z,5.20
2018-01-15T13:12:24.868Z,5.10
2018-01-15T13:14:53.168Z,5.20
2018-01-15T13:17:20.678Z,5.10
2018-01-15T13:19:48.194Z,5.20
2018-01-15T13:22:15.726Z,5.20
2018-01-15T13:24:43.998Z,5.20
2018-01-15T13:27:12.277Z,5.20
2018-01-15T13:29:40.543Z,5.20
2018-01-15T13:32:08.065Z,5.20
2018-01-15T13:34:35.580Z,5.20
2018-01-15T13:37:03.878Z,5.20
2018-01-15T13:39:31.394Z,5.10
2018-01-15T13:41:58.926Z,5.20
2018-01-15T13:44:26.452Z,5.10
2018-01-15T13:46:53.952Z,5.20
2018-01-15T13:49:22.477Z,5.10
2018-01-15T13:51:50.743Z,5.20
2018-01-15T13:54:19.037Z,5.20
2018-01-15T13:56:47.300Z,5.10
2018-01-15T13:59:15.596Z,5.00
2018-01-15T14:01:43.102Z,4.90
2018-01-15T14:04:10.706Z,5.00
2018-01-15T14:06:38.276Z,5.00
2018-01-15T14:09:06.576Z,5.00
2018-01-15T14:11:34.109Z,4.90
2018-01-15T14:14:02.372Z,5.00
2018-01-15T14:16:30.700Z,5.00
2018-01-15T14:18:58.224Z,4.90
2018-01-15T14:21:26.532Z,5.00
2018-01-15T14:23:54.072Z,4.90
2018-01-15T14:26:21.608Z,4.90
2018-01-15T14:28:50.900Z,4.90
2018-01-15T14:31:18.397Z,4.80
2018-01-15T14:33:45.920Z,5.00
2018-01-15T14:36:13.417Z,4.80
2018-01-15T14:38:40.937Z,4.80
2018-01-15T14:41:08.454Z,4.70
2018-01-15T14:43:35.989Z,4.70
2018-01-15T14:46:04.336Z,4.80
2018-01-15T14:48:31.856Z,4.70
2018-01-15T14:50:59.368Z,4.70
2018-01-15T14:53:27.657Z,4.60
2018-01-15T14:55:56.034Z,4.50
2018-01-15T14:58:24.328Z,4.50
2018-01-15T15:00:51.859Z,4.40
2018-01-15T15:03:20.134Z,4.50
2018-01-15T15:05:47.654Z,4.40
2018-01-15T15:08:15.169Z,4.40
2018-01-15T15:10:43.460Z,4.40
2018-01-15T15:13:10.973Z,4.30
2018-01-15T15:15:38.494Z,4.30
2018-01-15T15:18:05.992Z,4.40
2018-01-15T15:20:33.497Z,4.40
2018-01-15T15:23:01.037Z,4.40
2018-01-15T15:25:29.313Z,4.40
2018-01-15T15:27:57.612Z,4.40
2018-01-15T15:30:25.122Z,4.30
2018-01-15T15:32:52.663Z,4.30
2018-01-15T15:35:20.180Z,4.30
2018-01-15T15:37:48.485Z,4.20
2018-01-15T15:40:16.014Z,4.10
2018-01-15T15:42:44.292Z,4.20
2018-01-15T15:45:12.588Z,4.20
2018-01-15T15:47:40.100Z,4.20
2018-01-15T15:50:07.643Z,4.20
2018-01-15T15:52:35.173Z,4.20
2018-01-15T15:55:03.415Z,4.20
2018-01-15T15:57:31.701Z,4.20
2018-01-15T15:59:59.996Z,4.10
2018-01-15T16:02:27.514Z,4.10
2018-01-15T16:04:55.023Z,4.10
2018-01-15T16:07:22.577Z,4.10
2018-01-15T16:09:50.100Z,4.10
2018-01-15T16:12:17.624Z,4.10
2018-01-15T16:14:45.144Z,4.10
2018-01-15T16:17:13.445Z,4.10
2018-01-15T16:19:40.941Z,4.10
2018-01-15T16:22:20.460Z,4.10
2018-01-15T16:24:47.975Z,4.10
2018-01-15T16:27:16.296Z,3.90
2018-01-15T16:29:43.829Z,3.90
2018-01-15T16:32:11.328Z,4.00
2018-01-15T16:34:38.865Z,4.00
2018-01-15T16:37:06.371Z,4.10
2018-01-15T16:39:33.903Z,4.10
2018-01-15T16:42:01.398Z,4.00
2018-01-15T16:44:28.901Z,3.90
2018-01-15T16:46:56.435Z,3.90
2018-01-15T16:49:24.714Z,4.00
2018-01-15T16:51:52.997Z,4.00
2018-01-15T16:54:20.512Z,3.90
2018-01-15T16:56:48.028Z,4.10
2018-01-15T16:59:15.529Z,4.20
2018-01-15T17:01:43.160Z,4.10
2018-01-15T17:04:11.497Z,4.20
2018-01-15T17:06:39.760Z,4.10
2018-01-15T17:09:07.306Z,4.00
2018-01-15T17:11:34.981Z,4.20
2018-01-15T17:14:02.725Z,4.20
2018-01-15T17:16:30.227Z,4.20
2018-01-15T17:18:58.512Z,4.20
2018-01-15T17:21:26.894Z,4.20
2018-01-15T17:23:55.180Z,4.20
2018-01-15T17:26:22.672Z,4.10
2018-01-15T17:28:50.197Z,4.20
2018-01-15T17:31:17.704Z,4.10
2018-01-15T17:33:45.209Z,4.10
2018-01-15T17:36:13.488Z,4.10
2018-01-15T17:38:41.757Z,4.10
2018-01-15T17:41:10.039Z,4.10
2018-01-15T17:43:38.308Z,4.00
2018-01-15T17:46:06.601Z,4.10
2018-01-15T17:48:34.121Z,4.00
2018-01-15T17:51:01.652Z,4.10
2018-01-15T17:53:29.160Z,4.00
2018-01-15T17:55:57.462Z,4.00
2018-01-15T17:58:25.063Z,3.90
2018-01-15T18:00:52.673Z,4.00
2018-01-15T18:03:20.171Z,4.00
2018-01-15T18:05:47.686Z,4.00
2018-01-15T18:08:16.988Z,3.90
2018-01-15T18:10:45.256Z,4.10
2018-01-15T18:13:13.558Z,4.10
2018-01-15T18:15:41.075Z,4.00
2018-01-15T18:18:08.593Z,4.10
2018-01-15T18:20:36.092Z,4.10
2018-01-15T18:23:03.636Z,4.10
2018-01-15T18:25:31.128Z,4.10
2018-01-15T18:27:59.430Z,4.00
2018-01-15T18:30:26.930Z,3.90
2018-01-15T18:32:54.445Z,4.00
2018-01-15T18:35:21.984Z,4.00
2018-01-15T18:37:50.264Z,4.10
2018-01-15T18:40:17.821Z,4.00
2018-01-15T18:42:45.318Z,4.20
2018-01-15T18:45:12.853Z,4.00
2018-01-15T18:47:41.279Z,4.00
2018-01-15T18:50:09.824Z,3.90
2018-01-15T18:52:38.098Z,3.90
2018-01-15T18:55:06.394Z,4.00
2018-01-15T18:57:33.903Z,3.90
2018-01-15T19:00:01.402Z,4.00
2018-01-15T19:02:29.683Z,3.90
2018-01-15T19:04:58.627Z,3.80
2018-01-15T19:07:26.172Z,3.80
2018-01-15T19:09:57.083Z,3.80
2018-01-15T19:12:25.676Z,3.80
2018-01-15T19:14:53.203Z,3.90
2018-01-15T19:17:21.516Z,3.70
2018-01-15T19:19:49.030Z,3.70
2018-01-15T19:22:16.556Z,3.70
2018-01-15T19:24:44.060Z,3.70
2018-01-15T19:27:12.772Z,3.60
2018-01-15T19:29:40.284Z,3.60
2018-01-15T19:32:07.872Z,3.70
2018-01-15T19:34:54.045Z,3.70
2018-01-15T19:40:17.948Z,3.60
2018-01-15T19:42:45.463Z,3.60
2018-01-15T19:45:18.572Z,3.60
2018-01-15T19:47:51.726Z,3.50
2018-01-15T19:50:24.895Z,3.60
2018-01-15T19:52:58.791Z,3.50
2018-01-15T19:55:31.891Z,3.40
2018-01-15T19:58:05.993Z,3.50
2018-01-15T20:00:39.153Z,3.40
2018-01-15T20:03:12.231Z,3.60
2018-01-15T20:08:51.286Z,3.50
2018-01-15T20:11:18.795Z,3.50
2018-01-15T20:13:46.336Z,3.40
2018-01-15T20:16:14.732Z,3.40
2018-01-15T20:18:45.168Z,3.40
2018-01-15T20:21:13.465Z,3.40
2018-01-15T20:23:40.980Z,3.30
2018-01-15T20:26:08.500Z,3.40
2018-01-15T20:28:36.047Z,3.50
2018-01-15T20:31:03.698Z,3.40
2018-01-15T20:33:31.969Z,3.50
2018-01-15T20:36:00.280Z,3.50
2018-01-15T20:38:27.786Z,3.30
2018-01-15T20:40:55.301Z,3.50
2018-01-15T20:43:22.841Z,3.50
2018-01-15T20:45:50.351Z,3.50
2018-01-15T20:48:17.874Z,3.60
2018-01-15T20:50:45.392Z,3.60
2018-01-15T20:53:12.923Z,3.50
2018-01-15T20:55:40.429Z,3.60
2018-01-15T20:58:08.748Z,3.60
2018-01-15T21:00:38.728Z,3.50
2018-01-15T21:03:06.288Z,3.70
2018-01-15T21:05:34.788Z,3.60
2018-01-15T21:08:02.304Z,3.50
2018-01-15T21:10:29.836Z,3.60
2018-01-15T21:12:57.338Z,3.60
2018-01-15T21:15:25.626Z,3.60
2018-01-15T21:17:53.199Z,3.50
2018-01-15T21:20:20.757Z,3.60
2018-01-15T21:22:48.264Z,3.60
2018-01-15T21:25:15.829Z,3.70
2018-01-15T21:27:43.342Z,3.70
2018-01-15T21:30:10.861Z,3.60
2018-01-15T21:32:38.377Z,3.60
2018-01-15T21:35:05.872Z,3.60
2018-01-15T21:37:33.415Z,3.60
2018-01-15T21:40:00.976Z,3.60
2018-01-15T21:42:28.533Z,3.60
2018-01-15T21:44:56.052Z,3.60
2018-01-15T21:47:23.583Z,3.60
2018-01-15T21:49:51.878Z,3.60
2018-01-15T21:52:19.528Z,3.50
2018-01-15T21:54:47.088Z,3.60
2018-01-15T21:57:14.597Z,3.70
2018-01-15T21:59:42.896Z,3.60
2018-01-15T22:02:10.429Z,3.50
2018-01-15T22:04:37.972Z,3.70
2018-01-15T22:07:05.481Z,3.60
2018-01-15T22:09:33.021Z,3.70
2018-01-15T22:12:00.529Z,3.60
2018-01-15T22:14:28.800Z,3.70
2018-01-15T22:16:56.411Z,3.70
2018-01-15T22:19:23.913Z,3.70
2018-01-15T22:21:51.471Z,3.70
2018-01-15T22:24:18.982Z,3.70
2018-01-15T22:26:46.516Z,3.70
2018-01-15T22:29:14.792Z,3.70
2018-01-15T22:31:43.099Z,3.70
2018-01-15T22:34:10.604Z,3.60
2018-01-15T22:36:38.101Z,3.70
2018-01-15T22:39:05.632Z,3.70
2018-01-15T22:41:33.132Z,3.70
2018-01-15T22:44:00.696Z,3.70
2018-01-15T22:46:28.187Z,3.80
2018-01-15T22:48:55.721Z,3.80
2018-01-15T22:51:23.229Z,3.70
2018-01-15T22:53:50.746Z,3.80
2018-01-15T22:56:18.245Z,3.80
2018-01-15T22:58:45.752Z,3.80
2018-01-15T23:01:13.257Z,3.90
2018-01-15T23:03:40.750Z,3.90
2018-01-15T23:06:09.033Z,4.00
2018-01-15T23:08:36.528Z,3.90
2018-01-15T23:11:04.060Z,3.90
2018-01-15T23:13:31.669Z,3.90
2018-01-15T23:15:59.205Z,3.90
2018-01-15T23:18:26.720Z,4.00
2018-01-15T23:20:54.996Z,4.00
2018-01-15T23:23:23.290Z,3.90
2018-01-15T23:25:50.804Z,3.80
2018-01-15T23:28:18.350Z,4.00
2018-01-15T23:30:45.848Z,3.90
2018-01-15T23:33:14.128Z,3.90
2018-01-15T23:35:42.396Z,3.90
2018-01-15T23:38:10.688Z,4.00
2018-01-15T23:40:38.952Z,4.00
2018-01-15T23:43:06.478Z,3.90
2018-01-15T23:45:33.990Z,4.00
2018-01-15T23:48:02.258Z,4.10
2018-01-15T23:50:30.560Z,4.10
2018-01-15T23:52:58.074Z,4.00
2018-01-15T23:55:25.587Z,4.20
2018-01-15T23:57:53.081Z,4.30
